sensor_id;sensor_type;location;lat;lon;timestamp;P1;durP1;ratioP1;P2;durP2;ratioP2
37485;SDS011;23341;50.296;18.960;2023-04-29T00:01:42;11.90;;;6.65;;
37485;SDS011;23341;50.296;18.960;2023-04-29T00:06:47;15.80;;;8.15;;
37485;SDS011;23341;50.296;18.960;2023-04-29T00:11:52;11.80;;;7.93;;
37485;SDS011;23341;50.296;18.960;2023-04-29T00:16:56;12.02;;;7.72;;
37485;SDS011;23341;50.296;18.960;2023-04-29T00:22:02;12.70;;;7.65;;
37485;SDS011;23341;50.296;18.960;2023-04-29T00:27:07;11.55;;;7.60;;
37485;SDS011;23341;50.296;18.960;2023-04-29T00:32:13;11.77;;;7.15;;
37485;SDS011;23341;50.296;18.960;2023-04-29T00:37:19;14.43;;;7.60;;
37485;SDS011;23341;50.296;18.960;2023-04-29T00:42:24;13.30;;;7.82;;
37485;SDS011;23341;50.296;18.960;2023-04-29T00:47:28;14.77;;;9.00;;
37485;SDS011;23341;50.296;18.960;2023-04-29T00:52:34;18.42;;;8.07;;
37485;SDS011;23341;50.296;18.960;2023-04-29T00:57:40;17.77;;;8.93;;
37485;SDS011;23341;50.296;18.960;2023-04-29T01:02:45;12.45;;;7.22;;
37485;SDS011;23341;50.296;18.960;2023-04-29T01:07:57;16.65;;;7.95;;
37485;SDS011;23341;50.296;18.960;2023-04-29T01:13:16;13.77;;;8.00;;
37485;SDS011;23341;50.296;18.960;2023-04-29T01:18:28;15.27;;;8.48;;
37485;SDS011;23341;50.296;18.960;2023-04-29T01:28:44;19.17;;;8.18;;
37485;SDS011;23341;50.296;18.960;2023-04-29T01:33:57;11.88;;;8.15;;
37485;SDS011;23341;50.296;18.960;2023-04-29T01:39:12;17.17;;;8.52;;
37485;SDS011;23341;50.296;18.960;2023-04-29T01:44:23;12.30;;;8.68;;
37485;SDS011;23341;50.296;18.960;2023-04-29T01:49:34;22.07;;;8.90;;
37485;SDS011;23341;50.296;18.960;2023-04-29T01:54:41;18.23;;;9.18;;
37485;SDS011;23341;50.296;18.960;2023-04-29T01:59:45;15.90;;;9.30;;
37485;SDS011;23341;50.296;18.960;2023-04-29T02:05:10;23.05;;;13.00;;
37485;SDS011;23341;50.296;18.960;2023-04-29T02:10:20;14.18;;;9.80;;
37485;SDS011;23341;50.296;18.960;2023-04-29T02:15:33;15.02;;;9.52;;
37485;SDS011;23341;50.296;18.960;2023-04-29T02:20:38;13.10;;;8.90;;
37485;SDS011;23341;50.296;18.960;2023-04-29T02:25:44;17.63;;;8.93;;
37485;SDS011;23341;50.296;18.960;2023-04-29T02:30:48;16.48;;;9.23;;
37485;SDS011;23341;50.296;18.960;2023-04-29T02:35:53;14.30;;;8.93;;
37485;SDS011;23341;50.296;18.960;2023-04-29T02:40:58;18.83;;;9.95;;
37485;SDS011;23341;50.296;18.960;2023-04-29T02:46:02;13.52;;;9.13;;
37485;SDS011;23341;50.296;18.960;2023-04-29T02:51:07;14.38;;;8.88;;
37485;SDS011;23341;50.296;18.960;2023-04-29T02:56:13;15.45;;;8.30;;
37485;SDS011;23341;50.296;18.960;2023-04-29T03:01:17;13.68;;;8.68;;
37485;SDS011;23341;50.296;18.960;2023-04-29T03:06:22;16.02;;;9.25;;
37485;SDS011;23341;50.296;18.960;2023-04-29T03:11:27;19.48;;;10.40;;
37485;SDS011;23341;50.296;18.960;2023-04-29T03:16:32;14.82;;;8.45;;
37485;SDS011;23341;50.296;18.960;2023-04-29T03:21:36;17.08;;;9.20;;
37485;SDS011;23341;50.296;18.960;2023-04-29T03:26:42;15.52;;;9.90;;
37485;SDS011;23341;50.296;18.960;2023-04-29T03:31:46;18.92;;;9.27;;
37485;SDS011;23341;50.296;18.960;2023-04-29T03:36:51;15.65;;;9.65;;
37485;SDS011;23341;50.296;18.960;2023-04-29T03:41:58;13.90;;;8.15;;
37485;SDS011;23341;50.296;18.960;2023-04-29T03:47:03;14.02;;;9.43;;
37485;SDS011;23341;50.296;18.960;2023-04-29T03:52:08;12.25;;;9.50;;
37485;SDS011;23341;50.296;18.960;2023-04-29T03:57:15;14.82;;;9.80;;
37485;SDS011;23341;50.296;18.960;2023-04-29T04:02:20;14.82;;;9.98;;
37485;SDS011;23341;50.296;18.960;2023-04-29T04:07:25;18.15;;;9.80;;
37485;SDS011;23341;50.296;18.960;2023-04-29T04:12:51;14.43;;;8.75;;
37485;SDS011;23341;50.296;18.960;2023-04-29T04:17:55;19.17;;;9.95;;
37485;SDS011;23341;50.296;18.960;2023-04-29T04:23:00;18.67;;;9.45;;
37485;SDS011;23341;50.296;18.960;2023-04-29T04:28:06;19.45;;;10.88;;
37485;SDS011;23341;50.296;18.960;2023-04-29T04:33:31;13.63;;;9.02;;
37485;SDS011;23341;50.296;18.960;2023-04-29T04:38:36;14.55;;;9.57;;
37485;SDS011;23341;50.296;18.960;2023-04-29T04:43:46;19.00;;;9.80;;
37485;SDS011;23341;50.296;18.960;2023-04-29T04:49:06;15.40;;;8.75;;
37485;SDS011;23341;50.296;18.960;2023-04-29T04:54:16;17.33;;;8.77;;
37485;SDS011;23341;50.296;18.960;2023-04-29T04:59:25;14.23;;;7.60;;
37485;SDS011;23341;50.296;18.960;2023-04-29T05:04:30;9.98;;;7.90;;
37485;SDS011;23341;50.296;18.960;2023-04-29T05:09:34;10.95;;;7.72;;
37485;SDS011;23341;50.296;18.960;2023-04-29T05:14:40;12.65;;;7.28;;
37485;SDS011;23341;50.296;18.960;2023-04-29T05:19:44;13.35;;;7.65;;
37485;SDS011;23341;50.296;18.960;2023-04-29T05:24:48;11.73;;;7.82;;
37485;SDS011;23341;50.296;18.960;2023-04-29T05:29:57;13.55;;;8.18;;
37485;SDS011;23341;50.296;18.960;2023-04-29T05:35:01;12.90;;;7.00;;
37485;SDS011;23341;50.296;18.960;2023-04-29T05:40:09;11.73;;;7.32;;
37485;SDS011;23341;50.296;18.960;2023-04-29T05:45:16;16.85;;;7.60;;
37485;SDS011;23341;50.296;18.960;2023-04-29T05:50:20;10.70;;;7.70;;
37485;SDS011;23341;50.296;18.960;2023-04-29T05:55:25;12.32;;;7.80;;
37485;SDS011;23341;50.296;18.960;2023-04-29T06:00:30;8.27;;;6.70;;
37485;SDS011;23341;50.296;18.960;2023-04-29T06:05:44;12.02;;;6.60;;
37485;SDS011;23341;50.296;18.960;2023-04-29T06:11:07;11.88;;;7.18;;
37485;SDS011;23341;50.296;18.960;2023-04-29T06:16:13;12.18;;;6.82;;
37485;SDS011;23341;50.296;18.960;2023-04-29T06:21:17;13.80;;;7.70;;
37485;SDS011;23341;50.296;18.960;2023-04-29T06:26:21;12.65;;;6.65;;
37485;SDS011;23341;50.296;18.960;2023-04-29T06:31:27;13.40;;;7.43;;
37485;SDS011;23341;50.296;18.960;2023-04-29T06:36:36;10.15;;;8.02;;
37485;SDS011;23341;50.296;18.960;2023-04-29T06:42:05;12.25;;;7.32;;
37485;SDS011;23341;50.296;18.960;2023-04-29T06:47:17;12.52;;;8.00;;
37485;SDS011;23341;50.296;18.960;2023-04-29T06:52:29;9.82;;;7.72;;
37485;SDS011;23341;50.296;18.960;2023-04-29T06:57:33;16.00;;;7.57;;
37485;SDS011;23341;50.296;18.960;2023-04-29T07:02:39;13.10;;;7.50;;
37485;SDS011;23341;50.296;18.960;2023-04-29T07:07:45;11.68;;;8.82;;
37485;SDS011;23341;50.296;18.960;2023-04-29T07:12:49;12.95;;;8.00;;
37485;SDS011;23341;50.296;18.960;2023-04-29T07:17:55;10.55;;;7.68;;
37485;SDS011;23341;50.296;18.960;2023-04-29T07:22:59;10.80;;;8.30;;
37485;SDS011;23341;50.296;18.960;2023-04-29T07:28:04;11.93;;;8.40;;
37485;SDS011;23341;50.296;18.960;2023-04-29T07:33:11;9.80;;;8.73;;
37485;SDS011;23341;50.296;18.960;2023-04-29T07:38:15;20.45;;;10.85;;
37485;SDS011;23341;50.296;18.960;2023-04-29T07:43:19;12.50;;;8.27;;
37485;SDS011;23341;50.296;18.960;2023-04-29T07:48:25;13.73;;;9.48;;
37485;SDS011;23341;50.296;18.960;2023-04-29T07:53:30;11.40;;;7.75;;
37485;SDS011;23341;50.296;18.960;2023-04-29T07:58:34;11.63;;;7.88;;
37485;SDS011;23341;50.296;18.960;2023-04-29T08:03:40;13.25;;;7.53;;
37485;SDS011;23341;50.296;18.960;2023-04-29T08:08:46;17.48;;;8.65;;
37485;SDS011;23341;50.296;18.960;2023-04-29T08:13:53;10.70;;;8.55;;
37485;SDS011;23341;50.296;18.960;2023-04-29T08:19:00;11.65;;;8.40;;
37485;SDS011;23341;50.296;18.960;2023-04-29T08:24:05;16.75;;;7.82;;
37485;SDS011;23341;50.296;18.960;2023-04-29T08:29:09;24.42;;;12.95;;
37485;SDS011;23341;50.296;18.960;2023-04-29T08:34:15;12.02;;;7.78;;
37485;SDS011;23341;50.296;18.960;2023-04-29T08:39:19;36.55;;;16.73;;
37485;SDS011;23341;50.296;18.960;2023-04-29T08:44:24;9.75;;;7.60;;
37485;SDS011;23341;50.296;18.960;2023-04-29T08:49:31;11.50;;;7.05;;
37485;SDS011;23341;50.296;18.960;2023-04-29T08:54:36;8.82;;;6.10;;
37485;SDS011;23341;50.296;18.960;2023-04-29T08:59:40;7.45;;;5.70;;
37485;SDS011;23341;50.296;18.960;2023-04-29T09:04:51;8.13;;;5.95;;
37485;SDS011;23341;50.296;18.960;2023-04-29T09:10:01;6.32;;;5.72;;
37485;SDS011;23341;50.296;18.960;2023-04-29T09:15:07;12.20;;;7.15;;
37485;SDS011;23341;50.296;18.960;2023-04-29T09:20:27;13.32;;;7.50;;
37485;SDS011;23341;50.296;18.960;2023-04-29T09:25:32;10.63;;;8.68;;
37485;SDS011;23341;50.296;18.960;2023-04-29T09:30:44;10.82;;;6.85;;
37485;SDS011;23341;50.296;18.960;2023-04-29T09:35:51;13.95;;;7.63;;
37485;SDS011;23341;50.296;18.960;2023-04-29T09:40:55;11.98;;;7.57;;
37485;SDS011;23341;50.296;18.960;2023-04-29T09:46:03;12.57;;;8.40;;
37485;SDS011;23341;50.296;18.960;2023-04-29T09:51:09;16.80;;;8.90;;
37485;SDS011;23341;50.296;18.960;2023-04-29T09:56:17;8.35;;;7.53;;
37485;SDS011;23341;50.296;18.960;2023-04-29T10:01:21;14.07;;;8.15;;
37485;SDS011;23341;50.296;18.960;2023-04-29T10:06:29;13.70;;;8.10;;
37485;SDS011;23341;50.296;18.960;2023-04-29T10:11:35;9.20;;;8.10;;
37485;SDS011;23341;50.296;18.960;2023-04-29T10:23:47;18.35;;;11.27;;
37485;SDS011;23341;50.296;18.960;2023-04-29T10:28:54;17.83;;;9.82;;
37485;SDS011;23341;50.296;18.960;2023-04-29T10:33:59;18.92;;;10.02;;
37485;SDS011;23341;50.296;18.960;2023-04-29T10:39:05;22.85;;;10.40;;
37485;SDS011;23341;50.296;18.960;2023-04-29T10:44:16;16.15;;;9.45;;
37485;SDS011;23341;50.296;18.960;2023-04-29T13:04:10;7.82;;;5.20;;
37485;SDS011;23341;50.296;18.960;2023-04-29T13:09:14;8.50;;;6.22;;
37485;SDS011;23341;50.296;18.960;2023-04-29T13:14:20;5.30;;;4.78;;
37485;SDS011;23341;50.296;18.960;2023-04-29T13:25:48;6.57;;;5.03;;
37485;SDS011;23341;50.296;18.960;2023-04-29T13:30:57;6.32;;;5.00;;
37485;SDS011;23341;50.296;18.960;2023-04-29T13:36:02;7.47;;;4.65;;
37485;SDS011;23341;50.296;18.960;2023-04-29T13:41:58;12.23;;;5.00;;
37485;SDS011;23341;50.296;18.960;2023-04-29T13:54:36;7.45;;;5.55;;
37485;SDS011;23341;50.296;18.960;2023-04-29T13:59:44;9.10;;;5.53;;
37485;SDS011;23341;50.296;18.960;2023-04-29T14:10:46;7.25;;;5.65;;
37485;SDS011;23341;50.296;18.960;2023-04-29T14:15:51;8.60;;;6.32;;
37485;SDS011;23341;50.296;18.960;2023-04-29T14:27:07;7.28;;;5.22;;
37485;SDS011;23341;50.296;18.960;2023-04-29T14:33:24;10.27;;;6.07;;
37485;SDS011;23341;50.296;18.960;2023-04-29T14:38:29;14.10;;;9.20;;
37485;SDS011;23341;50.296;18.960;2023-04-29T14:49:19;17.10;;;10.25;;
37485;SDS011;23341;50.296;18.960;2023-04-29T14:54:23;15.85;;;11.52;;
37485;SDS011;23341;50.296;18.960;2023-04-29T14:59:28;15.77;;;10.70;;
37485;SDS011;23341;50.296;18.960;2023-04-29T15:10:22;13.68;;;11.13;;
37485;SDS011;23341;50.296;18.960;2023-04-29T15:15:26;13.05;;;9.90;;
37485;SDS011;23341;50.296;18.960;2023-04-29T15:28:03;22.48;;;14.15;;
37485;SDS011;23341;50.296;18.960;2023-04-29T15:33:07;18.52;;;12.13;;
37485;SDS011;23341;50.296;18.960;2023-04-29T15:38:12;15.40;;;9.50;;
37485;SDS011;23341;50.296;18.960;2023-04-29T15:43:18;9.45;;;6.97;;
37485;SDS011;23341;50.296;18.960;2023-04-29T15:48:25;14.27;;;9.80;;
37485;SDS011;23341;50.296;18.960;2023-04-29T15:53:29;14.60;;;9.57;;
37485;SDS011;23341;50.296;18.960;2023-04-29T15:58:35;21.70;;;15.48;;
37485;SDS011;23341;50.296;18.960;2023-04-29T16:03:39;20.85;;;13.93;;
37485;SDS011;23341;50.296;18.960;2023-04-29T16:08:44;16.40;;;10.85;;
37485;SDS011;23341;50.296;18.960;2023-04-29T16:13:49;17.10;;;12.23;;
37485;SDS011;23341;50.296;18.960;2023-04-29T16:18:54;16.55;;;11.70;;
37485;SDS011;23341;50.296;18.960;2023-04-29T16:23:58;13.38;;;8.80;;
37485;SDS011;23341;50.296;18.960;2023-04-29T16:29:04;14.73;;;12.23;;
37485;SDS011;23341;50.296;18.960;2023-04-29T16:34:09;8.55;;;5.68;;
37485;SDS011;23341;50.296;18.960;2023-04-29T16:39:14;6.57;;;4.88;;
37485;SDS011;23341;50.296;18.960;2023-04-29T16:44:19;7.03;;;5.18;;
37485;SDS011;23341;50.296;18.960;2023-04-29T16:49:24;6.80;;;5.63;;
37485;SDS011;23341;50.296;18.960;2023-04-29T16:54:29;11.65;;;8.05;;
37485;SDS011;23341;50.296;18.960;2023-04-29T16:59:35;8.65;;;7.85;;
37485;SDS011;23341;50.296;18.960;2023-04-29T17:04:39;7.43;;;5.72;;
37485;SDS011;23341;50.296;18.960;2023-04-29T17:09:45;17.95;;;9.50;;
37485;SDS011;23341;50.296;18.960;2023-04-29T17:14:51;11.68;;;8.48;;
37485;SDS011;23341;50.296;18.960;2023-04-29T17:19:56;15.32;;;9.70;;
37485;SDS011;23341;50.296;18.960;2023-04-29T17:25:00;23.33;;;13.35;;
37485;SDS011;23341;50.296;18.960;2023-04-29T17:30:07;24.73;;;14.20;;
37485;SDS011;23341;50.296;18.960;2023-04-29T17:35:12;14.95;;;11.45;;
37485;SDS011;23341;50.296;18.960;2023-04-29T17:40:16;12.25;;;10.25;;
37485;SDS011;23341;50.296;18.960;2023-04-29T17:45:22;14.23;;;11.55;;
37485;SDS011;23341;50.296;18.960;2023-04-29T17:50:26;16.88;;;12.63;;
37485;SDS011;23341;50.296;18.960;2023-04-29T17:55:31;18.65;;;13.63;;
37485;SDS011;23341;50.296;18.960;2023-04-29T18:00:36;13.50;;;11.07;;
37485;SDS011;23341;50.296;18.960;2023-04-29T18:05:43;18.50;;;14.60;;
37485;SDS011;23341;50.296;18.960;2023-04-29T18:10:48;21.48;;;12.95;;
37485;SDS011;23341;50.296;18.960;2023-04-29T18:15:54;21.92;;;12.55;;
37485;SDS011;23341;50.296;18.960;2023-04-29T18:20:58;18.23;;;14.27;;
37485;SDS011;23341;50.296;18.960;2023-04-29T18:26:03;26.83;;;16.15;;
37485;SDS011;23341;50.296;18.960;2023-04-29T18:31:09;24.23;;;16.20;;
37485;SDS011;23341;50.296;18.960;2023-04-29T18:36:13;22.00;;;15.85;;
37485;SDS011;23341;50.296;18.960;2023-04-29T18:41:18;25.25;;;16.85;;
37485;SDS011;23341;50.296;18.960;2023-04-29T18:46:24;27.58;;;17.60;;
37485;SDS011;23341;50.296;18.960;2023-04-29T18:51:30;25.17;;;16.55;;
37485;SDS011;23341;50.296;18.960;2023-04-29T18:56:35;28.23;;;19.67;;
37485;SDS011;23341;50.296;18.960;2023-04-29T19:01:43;35.38;;;23.77;;
37485;SDS011;23341;50.296;18.960;2023-04-29T19:06:47;29.55;;;21.27;;
37485;SDS011;23341;50.296;18.960;2023-04-29T19:11:51;28.75;;;20.20;;
37485;SDS011;23341;50.296;18.960;2023-04-29T19:16:57;33.17;;;23.40;;
37485;SDS011;23341;50.296;18.960;2023-04-29T19:22:01;28.20;;;18.17;;
37485;SDS011;23341;50.296;18.960;2023-04-29T19:27:06;30.90;;;19.65;;
37485;SDS011;23341;50.296;18.960;2023-04-29T19:32:12;30.38;;;23.85;;
37485;SDS011;23341;50.296;18.960;2023-04-29T19:37:16;28.88;;;21.10;;
37485;SDS011;23341;50.296;18.960;2023-04-29T19:42:21;26.67;;;17.65;;
37485;SDS011;23341;50.296;18.960;2023-04-29T19:47:26;16.45;;;12.45;;
37485;SDS011;23341;50.296;18.960;2023-04-29T19:52:31;23.15;;;14.57;;
37485;SDS011;23341;50.296;18.960;2023-04-29T19:57:35;20.65;;;12.10;;
37485;SDS011;23341;50.296;18.960;2023-04-29T20:02:41;28.58;;;15.73;;
37485;SDS011;23341;50.296;18.960;2023-04-29T20:07:46;14.85;;;10.82;;
37485;SDS011;23341;50.296;18.960;2023-04-29T20:12:51;33.05;;;13.88;;
37485;SDS011;23341;50.296;18.960;2023-04-29T20:17:57;106.32;;;40.50;;
37485;SDS011;23341;50.296;18.960;2023-04-29T20:23:01;140.45;;;51.97;;
37485;SDS011;23341;50.296;18.960;2023-04-29T20:28:06;69.43;;;28.80;;
37485;SDS011;23341;50.296;18.960;2023-04-29T20:33:12;58.30;;;25.48;;
37485;SDS011;23341;50.296;18.960;2023-04-29T20:38:17;40.50;;;21.52;;
37485;SDS011;23341;50.296;18.960;2023-04-29T20:43:22;30.02;;;16.88;;
37485;SDS011;23341;50.296;18.960;2023-04-29T20:48:28;78.78;;;32.47;;
37485;SDS011;23341;50.296;18.960;2023-04-29T20:53:33;52.95;;;23.13;;
37485;SDS011;23341;50.296;18.960;2023-04-29T20:58:37;145.40;;;78.85;;
37485;SDS011;23341;50.296;18.960;2023-04-29T21:03:43;182.77;;;83.20;;
37485;SDS011;23341;50.296;18.960;2023-04-29T21:08:47;56.55;;;29.35;;
37485;SDS011;23341;50.296;18.960;2023-04-29T21:13:51;109.38;;;42.78;;
37485;SDS011;23341;50.296;18.960;2023-04-29T21:18:57;155.45;;;58.58;;
37485;SDS011;23341;50.296;18.960;2023-04-29T21:24:01;29.55;;;19.17;;
37485;SDS011;23341;50.296;18.960;2023-04-29T21:29:06;29.98;;;18.88;;
37485;SDS011;23341;50.296;18.960;2023-04-29T21:34:12;53.58;;;27.83;;
37485;SDS011;23341;50.296;18.960;2023-04-29T21:39:16;174.27;;;71.00;;
37485;SDS011;23341;50.296;18.960;2023-04-29T21:44:20;28.92;;;21.08;;
37485;SDS011;23341;50.296;18.960;2023-04-29T21:49:26;49.38;;;26.73;;
37485;SDS011;23341;50.296;18.960;2023-04-29T21:54:30;91.93;;;44.58;;
37485;SDS011;23341;50.296;18.960;2023-04-29T21:59:35;54.63;;;28.83;;
37485;SDS011;23341;50.296;18.960;2023-04-29T22:04:41;172.88;;;54.85;;
37485;SDS011;23341;50.296;18.960;2023-04-29T22:09:45;84.63;;;36.47;;
37485;SDS011;23341;50.296;18.960;2023-04-29T22:14:51;49.67;;;25.70;;
37485;SDS011;23341;50.296;18.960;2023-04-29T22:19:56;39.67;;;22.13;;
37485;SDS011;23341;50.296;18.960;2023-04-29T22:25:00;48.70;;;28.45;;
37485;SDS011;23341;50.296;18.960;2023-04-29T22:30:06;35.22;;;22.88;;
37485;SDS011;23341;50.296;18.960;2023-04-29T22:35:13;43.67;;;26.20;;
37485;SDS011;23341;50.296;18.960;2023-04-29T22:40:17;49.72;;;27.80;;
37485;SDS011;23341;50.296;18.960;2023-04-29T22:45:21;46.42;;;26.83;;
37485;SDS011;23341;50.296;18.960;2023-04-29T22:50:27;33.47;;;22.33;;
37485;SDS011;23341;50.296;18.960;2023-04-29T22:55:31;29.73;;;19.90;;
37485;SDS011;23341;50.296;18.960;2023-04-29T23:00:36;25.90;;;17.88;;
37485;SDS011;23341;50.296;18.960;2023-04-29T23:05:41;27.20;;;19.13;;
37485;SDS011;23341;50.296;18.960;2023-04-29T23:10:45;26.05;;;18.02;;
37485;SDS011;23341;50.296;18.960;2023-04-29T23:15:53;26.13;;;17.38;;
37485;SDS011;23341;50.296;18.960;2023-04-29T23:21:00;28.73;;;18.80;;
37485;SDS011;23341;50.296;18.960;2023-04-29T23:26:05;29.92;;;20.17;;
37485;SDS011;23341;50.296;18.960;2023-04-29T23:31:10;38.05;;;21.65;;
37485;SDS011;23341;50.296;18.960;2023-04-29T23:36:15;35.90;;;20.58;;
37485;SDS011;23341;50.296;18.960;2023-04-29T23:41:19;33.00;;;21.55;;
37485;SDS011;23341;50.296;18.960;2023-04-29T23:46:24;35.85;;;23.73;;
37485;SDS011;23341;50.296;18.960;2023-04-29T23:51:30;41.30;;;27.85;;
37485;SDS011;23341;50.296;18.960;2023-04-29T23:56:34;59.20;;;36.17;;
